sensor_id;sensor_type;location;lat;lon;timestamp;P1;durP1;ratioP1;P2;durP2;ratioP2
13222;SDS011;6676;45.192;5.722;2022-10-01T00:01:24;6.30;;;4.17;;
13222;SDS011;6676;45.192;5.722;2022-10-01T00:04:16;6.00;;;4.12;;
13222;SDS011;6676;45.192;5.722;2022-10-01T00:07:07;6.33;;;5.17;;
13222;SDS011;6676;45.192;5.722;2022-10-01T00:10:00;9.75;;;5.62;;
13222;SDS011;6676;45.192;5.722;2022-10-01T00:12:52;10.20;;;6.45;;
13222;SDS011;6676;45.192;5.722;2022-10-01T00:15:43;10.82;;;6.62;;
13222;SDS011;6676;45.192;5.722;2022-10-01T00:18:35;7.92;;;6.03;;
13222;SDS011;6676;45.192;5.722;2022-10-01T00:21:28;8.08;;;6.50;;
13222;SDS011;6676;45.192;5.722;2022-10-01T00:24:21;7.97;;;6.95;;
13222;SDS011;6676;45.192;5.722;2022-10-01T00:27:12;7.62;;;5.92;;
13222;SDS011;6676;45.192;5.722;2022-10-01T00:30:04;8.58;;;5.45;;
13222;SDS011;6676;45.192;5.722;2022-10-01T00:32:57;5.83;;;4.05;;
13222;SDS011;6676;45.192;5.722;2022-10-01T00:35:49;5.12;;;4.00;;
13222;SDS011;6676;45.192;5.722;2022-10-01T00:38:43;5.72;;;3.90;;
13222;SDS011;6676;45.192;5.722;2022-10-01T00:41:35;6.58;;;3.75;;
13222;SDS011;6676;45.192;5.722;2022-10-01T00:44:29;5.60;;;4.08;;
13222;SDS011;6676;45.192;5.722;2022-10-01T00:47:24;4.55;;;3.70;;
13222;SDS011;6676;45.192;5.722;2022-10-01T00:50:18;5.78;;;3.60;;
13222;SDS011;6676;45.192;5.722;2022-10-01T00:53:12;5.05;;;3.02;;
13222;SDS011;6676;45.192;5.722;2022-10-01T00:56:04;6.45;;;3.20;;
13222;SDS011;6676;45.192;5.722;2022-10-01T00:58:56;6.83;;;3.72;;
13222;SDS011;6676;45.192;5.722;2022-10-01T01:01:48;5.25;;;4.17;;
13222;SDS011;6676;45.192;5.722;2022-10-01T01:04:40;4.17;;;3.47;;
13222;SDS011;6676;45.192;5.722;2022-10-01T01:07:33;5.22;;;3.27;;
13222;SDS011;6676;45.192;5.722;2022-10-01T01:10:28;3.58;;;3.22;;
13222;SDS011;6676;45.192;5.722;2022-10-01T01:13:23;4.17;;;2.87;;
13222;SDS011;6676;45.192;5.722;2022-10-01T01:19:24;4.70;;;3.45;;
13222;SDS011;6676;45.192;5.722;2022-10-01T01:25:12;3.75;;;3.33;;
13222;SDS011;6676;45.192;5.722;2022-10-01T01:28:06;6.22;;;3.62;;
13222;SDS011;6676;45.192;5.722;2022-10-01T01:31:03;5.60;;;3.52;;
13222;SDS011;6676;45.192;5.722;2022-10-01T01:33:56;4.45;;;3.55;;
13222;SDS011;6676;45.192;5.722;2022-10-01T01:36:51;4.05;;;3.40;;
13222;SDS011;6676;45.192;5.722;2022-10-01T01:39:47;3.98;;;3.40;;
13222;SDS011;6676;45.192;5.722;2022-10-01T01:42:29;4.50;;;3.85;;
13222;SDS011;6676;45.192;5.722;2022-10-01T01:45:25;4.58;;;3.65;;
13222;SDS011;6676;45.192;5.722;2022-10-01T01:48:09;6.22;;;3.95;;
13222;SDS011;6676;45.192;5.722;2022-10-01T01:51:01;9.58;;;3.77;;
13222;SDS011;6676;45.192;5.722;2022-10-01T01:53:55;5.97;;;3.90;;
13222;SDS011;6676;45.192;5.722;2022-10-01T01:56:47;6.62;;;3.80;;
13222;SDS011;6676;45.192;5.722;2022-10-01T01:59:39;5.17;;;3.40;;
13222;SDS011;6676;45.192;5.722;2022-10-01T02:02:31;4.42;;;3.20;;
13222;SDS011;6676;45.192;5.722;2022-10-01T02:05:27;7.12;;;3.42;;
13222;SDS011;6676;45.192;5.722;2022-10-01T02:08:25;4.40;;;3.42;;
13222;SDS011;6676;45.192;5.722;2022-10-01T02:11:23;4.65;;;3.37;;
13222;SDS011;6676;45.192;5.722;2022-10-01T02:14:19;4.17;;;3.10;;
13222;SDS011;6676;45.192;5.722;2022-10-01T02:17:13;3.77;;;3.10;;
13222;SDS011;6676;45.192;5.722;2022-10-01T02:20:08;4.22;;;3.22;;
13222;SDS011;6676;45.192;5.722;2022-10-01T02:23:02;3.72;;;2.90;;
13222;SDS011;6676;45.192;5.722;2022-10-01T02:25:58;3.02;;;2.72;;
13222;SDS011;6676;45.192;5.722;2022-10-01T02:28:52;4.08;;;2.77;;
13222;SDS011;6676;45.192;5.722;2022-10-01T02:31:38;5.58;;;2.77;;
13222;SDS011;6676;45.192;5.722;2022-10-01T02:34:29;4.25;;;2.80;;
13222;SDS011;6676;45.192;5.722;2022-10-01T02:37:22;3.62;;;2.83;;
13222;SDS011;6676;45.192;5.722;2022-10-01T02:40:16;3.55;;;2.98;;
13222;SDS011;6676;45.192;5.722;2022-10-01T02:43:10;3.72;;;2.87;;
13222;SDS011;6676;45.192;5.722;2022-10-01T02:46:06;7.08;;;2.98;;
13222;SDS011;6676;45.192;5.722;2022-10-01T02:48:59;4.78;;;3.10;;
13222;SDS011;6676;45.192;5.722;2022-10-01T02:51:53;5.05;;;3.22;;
13222;SDS011;6676;45.192;5.722;2022-10-01T02:54:47;3.52;;;2.80;;
13222;SDS011;6676;45.192;5.722;2022-10-01T02:57:41;6.72;;;3.22;;
13222;SDS011;6676;45.192;5.722;2022-10-01T03:00:32;3.60;;;2.85;;
13222;SDS011;6676;45.192;5.722;2022-10-01T03:03:23;3.67;;;2.60;;
13222;SDS011;6676;45.192;5.722;2022-10-01T03:06:15;7.03;;;3.52;;
13222;SDS011;6676;45.192;5.722;2022-10-01T03:09:06;3.85;;;2.42;;
13222;SDS011;6676;45.192;5.722;2022-10-01T03:11:58;3.72;;;2.52;;
13222;SDS011;6676;45.192;5.722;2022-10-01T03:14:50;3.40;;;2.35;;
13222;SDS011;6676;45.192;5.722;2022-10-01T03:17:41;3.00;;;2.30;;
13222;SDS011;6676;45.192;5.722;2022-10-01T03:20:32;2.40;;;2.10;;
13222;SDS011;6676;45.192;5.722;2022-10-01T03:23:23;3.37;;;2.10;;
13222;SDS011;6676;45.192;5.722;2022-10-01T03:26:15;3.15;;;2.60;;
13222;SDS011;6676;45.192;5.722;2022-10-01T03:29:06;2.80;;;2.50;;
13222;SDS011;6676;45.192;5.722;2022-10-01T03:31:57;3.05;;;2.02;;
13222;SDS011;6676;45.192;5.722;2022-10-01T03:34:49;3.00;;;2.50;;
13222;SDS011;6676;45.192;5.722;2022-10-01T03:37:41;2.80;;;2.12;;
13222;SDS011;6676;45.192;5.722;2022-10-01T03:40:32;4.35;;;2.10;;
13222;SDS011;6676;45.192;5.722;2022-10-01T03:43:25;2.52;;;2.30;;
13222;SDS011;6676;45.192;5.722;2022-10-01T03:46:16;5.62;;;2.40;;
13222;SDS011;6676;45.192;5.722;2022-10-01T03:49:08;2.83;;;2.17;;
13222;SDS011;6676;45.192;5.722;2022-10-01T03:51:59;4.28;;;2.50;;
13222;SDS011;6676;45.192;5.722;2022-10-01T03:54:50;3.35;;;1.85;;
13222;SDS011;6676;45.192;5.722;2022-10-01T03:57:41;4.37;;;2.10;;
13222;SDS011;6676;45.192;5.722;2022-10-01T04:00:33;3.85;;;1.80;;
13222;SDS011;6676;45.192;5.722;2022-10-01T04:03:24;2.87;;;1.92;;
13222;SDS011;6676;45.192;5.722;2022-10-01T04:06:15;3.98;;;2.40;;
13222;SDS011;6676;45.192;5.722;2022-10-01T04:09:06;2.60;;;1.90;;
13222;SDS011;6676;45.192;5.722;2022-10-01T04:11:58;3.42;;;2.00;;
13222;SDS011;6676;45.192;5.722;2022-10-01T04:14:50;4.08;;;2.17;;
13222;SDS011;6676;45.192;5.722;2022-10-01T04:17:41;2.67;;;2.12;;
13222;SDS011;6676;45.192;5.722;2022-10-01T04:20:34;4.22;;;2.55;;
13222;SDS011;6676;45.192;5.722;2022-10-01T04:23:26;5.85;;;2.58;;
13222;SDS011;6676;45.192;5.722;2022-10-01T04:26:17;4.42;;;2.33;;
13222;SDS011;6676;45.192;5.722;2022-10-01T04:29:09;3.02;;;2.15;;
13222;SDS011;6676;45.192;5.722;2022-10-01T04:32:00;4.35;;;2.27;;
13222;SDS011;6676;45.192;5.722;2022-10-01T04:34:52;3.17;;;2.58;;
13222;SDS011;6676;45.192;5.722;2022-10-01T04:37:43;2.45;;;2.05;;
13222;SDS011;6676;45.192;5.722;2022-10-01T04:40:35;2.62;;;1.90;;
13222;SDS011;6676;45.192;5.722;2022-10-01T04:43:27;1.98;;;1.70;;
13222;SDS011;6676;45.192;5.722;2022-10-01T04:46:19;3.37;;;1.80;;
13222;SDS011;6676;45.192;5.722;2022-10-01T04:49:10;2.50;;;2.30;;
13222;SDS011;6676;45.192;5.722;2022-10-01T04:52:02;3.42;;;2.77;;
13222;SDS011;6676;45.192;5.722;2022-10-01T04:54:54;2.15;;;1.95;;
13222;SDS011;6676;45.192;5.722;2022-10-01T04:57:45;2.62;;;2.10;;
13222;SDS011;6676;45.192;5.722;2022-10-01T05:00:39;5.60;;;2.50;;
13222;SDS011;6676;45.192;5.722;2022-10-01T05:03:31;3.22;;;2.15;;
13222;SDS011;6676;45.192;5.722;2022-10-01T05:06:23;4.08;;;2.50;;
13222;SDS011;6676;45.192;5.722;2022-10-01T05:09:14;2.65;;;2.22;;
13222;SDS011;6676;45.192;5.722;2022-10-01T05:12:06;2.92;;;2.42;;
13222;SDS011;6676;45.192;5.722;2022-10-01T05:14:58;6.00;;;2.22;;
13222;SDS011;6676;45.192;5.722;2022-10-01T05:17:51;4.15;;;2.35;;
13222;SDS011;6676;45.192;5.722;2022-10-01T05:20:42;2.98;;;2.10;;
13222;SDS011;6676;45.192;5.722;2022-10-01T05:23:34;3.12;;;2.33;;
13222;SDS011;6676;45.192;5.722;2022-10-01T05:26:26;2.22;;;2.02;;
13222;SDS011;6676;45.192;5.722;2022-10-01T05:29:19;2.50;;;1.90;;
13222;SDS011;6676;45.192;5.722;2022-10-01T05:32:11;2.33;;;1.80;;
13222;SDS011;6676;45.192;5.722;2022-10-01T05:35:03;2.85;;;1.98;;
13222;SDS011;6676;45.192;5.722;2022-10-01T05:37:56;3.87;;;2.15;;
13222;SDS011;6676;45.192;5.722;2022-10-01T05:40:49;3.65;;;1.80;;
13222;SDS011;6676;45.192;5.722;2022-10-01T05:43:41;2.30;;;2.08;;
13222;SDS011;6676;45.192;5.722;2022-10-01T05:46:32;5.83;;;2.20;;
13222;SDS011;6676;45.192;5.722;2022-10-01T05:49:24;2.83;;;2.05;;
13222;SDS011;6676;45.192;5.722;2022-10-01T05:52:15;4.00;;;2.20;;
13222;SDS011;6676;45.192;5.722;2022-10-01T05:55:07;2.60;;;1.90;;
13222;SDS011;6676;45.192;5.722;2022-10-01T05:57:59;1.77;;;1.50;;
13222;SDS011;6676;45.192;5.722;2022-10-01T06:00:53;2.12;;;1.87;;
13222;SDS011;6676;45.192;5.722;2022-10-01T06:03:48;3.45;;;1.95;;
13222;SDS011;6676;45.192;5.722;2022-10-01T06:06:40;2.72;;;2.05;;
13222;SDS011;6676;45.192;5.722;2022-10-01T06:09:31;3.40;;;2.00;;
13222;SDS011;6676;45.192;5.722;2022-10-01T06:12:22;3.92;;;1.77;;
13222;SDS011;6676;45.192;5.722;2022-10-01T06:15:14;3.90;;;1.95;;
13222;SDS011;6676;45.192;5.722;2022-10-01T06:18:07;2.95;;;2.02;;
13222;SDS011;6676;45.192;5.722;2022-10-01T06:20:59;3.30;;;2.50;;
13222;SDS011;6676;45.192;5.722;2022-10-01T06:23:50;2.10;;;1.90;;
13222;SDS011;6676;45.192;5.722;2022-10-01T06:26:41;3.58;;;2.05;;
13222;SDS011;6676;45.192;5.722;2022-10-01T06:29:32;3.05;;;2.37;;
13222;SDS011;6676;45.192;5.722;2022-10-01T06:32:24;2.95;;;2.35;;
13222;SDS011;6676;45.192;5.722;2022-10-01T06:35:17;3.62;;;2.67;;
13222;SDS011;6676;45.192;5.722;2022-10-01T06:38:08;4.20;;;2.87;;
13222;SDS011;6676;45.192;5.722;2022-10-01T06:41:00;2.58;;;2.30;;
13222;SDS011;6676;45.192;5.722;2022-10-01T06:43:52;4.22;;;2.40;;
13222;SDS011;6676;45.192;5.722;2022-10-01T06:46:43;5.47;;;3.02;;
13222;SDS011;6676;45.192;5.722;2022-10-01T06:49:35;4.80;;;2.80;;
13222;SDS011;6676;45.192;5.722;2022-10-01T06:52:26;3.80;;;2.60;;
13222;SDS011;6676;45.192;5.722;2022-10-01T06:55:35;4.12;;;2.40;;
13222;SDS011;6676;45.192;5.722;2022-10-01T06:58:28;6.75;;;2.55;;
13222;SDS011;6676;45.192;5.722;2022-10-01T07:01:19;7.12;;;2.60;;
13222;SDS011;6676;45.192;5.722;2022-10-01T07:04:11;3.20;;;2.70;;
13222;SDS011;6676;45.192;5.722;2022-10-01T07:07:02;7.22;;;2.90;;
13222;SDS011;6676;45.192;5.722;2022-10-01T07:09:55;2.98;;;2.67;;
13222;SDS011;6676;45.192;5.722;2022-10-01T07:12:47;3.30;;;2.80;;
13222;SDS011;6676;45.192;5.722;2022-10-01T07:15:39;4.17;;;2.37;;
13222;SDS011;6676;45.192;5.722;2022-10-01T07:18:31;3.95;;;2.92;;
13222;SDS011;6676;45.192;5.722;2022-10-01T07:21:22;4.03;;;2.52;;
13222;SDS011;6676;45.192;5.722;2022-10-01T07:24:13;5.85;;;3.15;;
13222;SDS011;6676;45.192;5.722;2022-10-01T07:27:05;3.20;;;2.90;;
13222;SDS011;6676;45.192;5.722;2022-10-01T07:29:57;2.83;;;2.52;;
13222;SDS011;6676;45.192;5.722;2022-10-01T07:32:49;3.10;;;2.80;;
13222;SDS011;6676;45.192;5.722;2022-10-01T07:38:19;4.72;;;2.90;;
13222;SDS011;6676;45.192;5.722;2022-10-01T07:41:11;3.58;;;2.90;;
13222;SDS011;6676;45.192;5.722;2022-10-01T07:44:04;6.75;;;3.25;;
13222;SDS011;6676;45.192;5.722;2022-10-01T07:46:56;8.28;;;3.15;;
13222;SDS011;6676;45.192;5.722;2022-10-01T07:49:48;4.30;;;3.17;;
13222;SDS011;6676;45.192;5.722;2022-10-01T07:52:39;4.85;;;3.12;;
13222;SDS011;6676;45.192;5.722;2022-10-01T07:58:10;5.30;;;4.00;;
13222;SDS011;6676;45.192;5.722;2022-10-01T08:01:02;6.30;;;4.67;;
13222;SDS011;6676;45.192;5.722;2022-10-01T08:03:54;4.97;;;4.10;;
13222;SDS011;6676;45.192;5.722;2022-10-01T08:06:46;4.92;;;3.95;;
13222;SDS011;6676;45.192;5.722;2022-10-01T08:09:27;4.30;;;3.50;;
13222;SDS011;6676;45.192;5.722;2022-10-01T08:14:58;6.85;;;4.97;;
13222;SDS011;6676;45.192;5.722;2022-10-01T08:17:50;7.78;;;4.30;;
13222;SDS011;6676;45.192;5.722;2022-10-01T08:20:41;5.42;;;3.70;;
13222;SDS011;6676;45.192;5.722;2022-10-01T08:23:32;9.33;;;4.85;;
13222;SDS011;6676;45.192;5.722;2022-10-01T08:26:24;3.85;;;3.20;;
13222;SDS011;6676;45.192;5.722;2022-10-01T08:29:16;5.45;;;3.33;;
13222;SDS011;6676;45.192;5.722;2022-10-01T08:32:08;5.50;;;2.75;;
13222;SDS011;6676;45.192;5.722;2022-10-01T08:34:59;3.10;;;2.80;;
13222;SDS011;6676;45.192;5.722;2022-10-01T08:37:52;4.95;;;2.80;;
13222;SDS011;6676;45.192;5.722;2022-10-01T08:40:45;6.87;;;3.30;;
13222;SDS011;6676;45.192;5.722;2022-10-01T08:43:39;5.28;;;3.45;;
13222;SDS011;6676;45.192;5.722;2022-10-01T08:46:31;6.47;;;3.70;;
13222;SDS011;6676;45.192;5.722;2022-10-01T08:49:25;4.47;;;3.17;;
13222;SDS011;6676;45.192;5.722;2022-10-01T08:52:12;5.90;;;3.55;;
13222;SDS011;6676;45.192;5.722;2022-10-01T08:54:52;5.33;;;3.40;;
13222;SDS011;6676;45.192;5.722;2022-10-01T08:57:47;6.40;;;4.45;;
13222;SDS011;6676;45.192;5.722;2022-10-01T09:00:39;4.83;;;3.77;;
13222;SDS011;6676;45.192;5.722;2022-10-01T09:03:32;5.83;;;5.00;;
13222;SDS011;6676;45.192;5.722;2022-10-01T09:09:14;8.63;;;5.17;;
13222;SDS011;6676;45.192;5.722;2022-10-01T09:12:13;5.22;;;4.70;;
13222;SDS011;6676;45.192;5.722;2022-10-01T09:15:15;7.87;;;4.22;;
13222;SDS011;6676;45.192;5.722;2022-10-01T09:18:12;5.20;;;3.47;;
13222;SDS011;6676;45.192;5.722;2022-10-01T09:20:54;7.60;;;5.12;;
13222;SDS011;6676;45.192;5.722;2022-10-01T09:23:52;9.50;;;4.40;;
13222;SDS011;6676;45.192;5.722;2022-10-01T09:26:47;7.85;;;4.50;;
13222;SDS011;6676;45.192;5.722;2022-10-01T09:29:39;10.58;;;5.22;;
13222;SDS011;6676;45.192;5.722;2022-10-01T09:32:35;7.53;;;5.95;;
13222;SDS011;6676;45.192;5.722;2022-10-01T09:35:22;10.78;;;7.58;;
13222;SDS011;6676;45.192;5.722;2022-10-01T09:38:23;10.15;;;8.33;;
13222;SDS011;6676;45.192;5.722;2022-10-01T09:43:56;8.90;;;6.35;;
13222;SDS011;6676;45.192;5.722;2022-10-01T09:46:47;8.28;;;6.47;;
13222;SDS011;6676;45.192;5.722;2022-10-01T09:49:39;6.65;;;4.90;;
13222;SDS011;6676;45.192;5.722;2022-10-01T09:52:33;4.65;;;4.15;;
13222;SDS011;6676;45.192;5.722;2022-10-01T09:55:29;13.32;;;6.45;;
13222;SDS011;6676;45.192;5.722;2022-10-01T09:58:22;6.55;;;4.42;;
13222;SDS011;6676;45.192;5.722;2022-10-01T10:03:56;7.47;;;4.20;;
13222;SDS011;6676;45.192;5.722;2022-10-01T10:06:47;7.45;;;4.60;;
13222;SDS011;6676;45.192;5.722;2022-10-01T10:09:41;5.40;;;4.78;;
13222;SDS011;6676;45.192;5.722;2022-10-01T10:12:34;8.08;;;4.60;;
13222;SDS011;6676;45.192;5.722;2022-10-01T10:18:11;5.75;;;5.08;;
13222;SDS011;6676;45.192;5.722;2022-10-01T10:21:06;8.85;;;5.45;;
13222;SDS011;6676;45.192;5.722;2022-10-01T10:24:04;12.00;;;9.38;;
13222;SDS011;6676;45.192;5.722;2022-10-01T10:26:59;10.28;;;7.78;;
13222;SDS011;6676;45.192;5.722;2022-10-01T10:29:38;9.45;;;6.40;;
13222;SDS011;6676;45.192;5.722;2022-10-01T10:32:29;8.20;;;6.92;;
13222;SDS011;6676;45.192;5.722;2022-10-01T10:35:23;8.85;;;7.05;;
13222;SDS011;6676;45.192;5.722;2022-10-01T10:38:16;6.25;;;5.55;;
13222;SDS011;6676;45.192;5.722;2022-10-01T10:43:47;5.62;;;5.03;;
13222;SDS011;6676;45.192;5.722;2022-10-01T10:46:38;5.70;;;5.12;;
13222;SDS011;6676;45.192;5.722;2022-10-01T10:49:34;5.58;;;4.67;;
13222;SDS011;6676;45.192;5.722;2022-10-01T10:52:29;5.35;;;4.20;;
13222;SDS011;6676;45.192;5.722;2022-10-01T10:58:09;7.83;;;5.25;;
13222;SDS011;6676;45.192;5.722;2022-10-01T11:06:32;6.58;;;5.50;;
13222;SDS011;6676;45.192;5.722;2022-10-01T11:09:26;6.22;;;4.83;;
13222;SDS011;6676;45.192;5.722;2022-10-01T11:15:05;8.38;;;5.22;;
13222;SDS011;6676;45.192;5.722;2022-10-01T11:18:14;7.10;;;6.35;;
13222;SDS011;6676;45.192;5.722;2022-10-01T11:21:27;5.75;;;5.12;;
13222;SDS011;6676;45.192;5.722;2022-10-01T11:24:33;6.65;;;4.70;;
13222;SDS011;6676;45.192;5.722;2022-10-01T11:27:31;5.83;;;4.15;;
13222;SDS011;6676;45.192;5.722;2022-10-01T11:30:28;6.33;;;5.03;;
13222;SDS011;6676;45.192;5.722;2022-10-01T11:36:02;5.42;;;4.92;;
13222;SDS011;6676;45.192;5.722;2022-10-01T11:38:57;7.12;;;5.17;;
13222;SDS011;6676;45.192;5.722;2022-10-01T11:41:51;6.20;;;4.85;;
13222;SDS011;6676;45.192;5.722;2022-10-01T11:44:47;6.75;;;5.05;;
13222;SDS011;6676;45.192;5.722;2022-10-01T11:47:43;7.95;;;5.17;;
13222;SDS011;6676;45.192;5.722;2022-10-01T11:50:40;8.48;;;5.70;;
13222;SDS011;6676;45.192;5.722;2022-10-01T11:53:35;5.83;;;4.95;;
13222;SDS011;6676;45.192;5.722;2022-10-01T11:56:30;6.25;;;4.85;;
13222;SDS011;6676;45.192;5.722;2022-10-01T11:59:43;7.20;;;5.55;;
13222;SDS011;6676;45.192;5.722;2022-10-01T12:02:39;5.75;;;5.15;;
13222;SDS011;6676;45.192;5.722;2022-10-01T12:05:34;8.25;;;5.30;;
13222;SDS011;6676;45.192;5.722;2022-10-01T12:08:27;7.80;;;5.22;;
13222;SDS011;6676;45.192;5.722;2022-10-01T12:14:00;5.33;;;4.83;;
13222;SDS011;6676;45.192;5.722;2022-10-01T12:16:57;5.10;;;4.60;;
13222;SDS011;6676;45.192;5.722;2022-10-01T12:19:50;4.75;;;3.45;;
13222;SDS011;6676;45.192;5.722;2022-10-01T12:22:44;4.85;;;3.83;;
13222;SDS011;6676;45.192;5.722;2022-10-01T12:25:39;4.67;;;4.03;;
13222;SDS011;6676;45.192;5.722;2022-10-01T12:28:35;5.50;;;4.00;;
13222;SDS011;6676;45.192;5.722;2022-10-01T12:31:30;3.22;;;2.47;;
13222;SDS011;6676;45.192;5.722;2022-10-01T12:34:26;3.35;;;2.95;;
13222;SDS011;6676;45.192;5.722;2022-10-01T12:40:07;2.83;;;2.42;;
13222;SDS011;6676;45.192;5.722;2022-10-01T12:43:10;3.10;;;1.95;;
13222;SDS011;6676;45.192;5.722;2022-10-01T12:49:10;1.80;;;1.40;;
13222;SDS011;6676;45.192;5.722;2022-10-01T12:52:07;2.10;;;1.20;;
13222;SDS011;6676;45.192;5.722;2022-10-01T12:57:48;1.40;;;1.30;;
13222;SDS011;6676;45.192;5.722;2022-10-01T13:00:44;2.95;;;1.22;;
13222;SDS011;6676;45.192;5.722;2022-10-01T13:06:59;1.42;;;0.90;;
13222;SDS011;6676;45.192;5.722;2022-10-01T13:09:48;1.25;;;0.90;;
13222;SDS011;6676;45.192;5.722;2022-10-01T13:12:48;2.10;;;1.10;;
13222;SDS011;6676;45.192;5.722;2022-10-01T13:15:45;1.50;;;1.10;;
13222;SDS011;6676;45.192;5.722;2022-10-01T13:18:42;1.92;;;1.10;;
13222;SDS011;6676;45.192;5.722;2022-10-01T13:21:41;1.32;;;1.20;;
13222;SDS011;6676;45.192;5.722;2022-10-01T13:24:38;1.95;;;1.22;;
13222;SDS011;6676;45.192;5.722;2022-10-01T13:30:15;2.83;;;1.22;;
13222;SDS011;6676;45.192;5.722;2022-10-01T13:33:19;1.40;;;1.30;;
13222;SDS011;6676;45.192;5.722;2022-10-01T13:36:13;2.05;;;1.40;;
13222;SDS011;6676;45.192;5.722;2022-10-01T13:39:18;1.75;;;1.15;;
13222;SDS011;6676;45.192;5.722;2022-10-01T13:42:15;1.30;;;1.17;;
13222;SDS011;6676;45.192;5.722;2022-10-01T13:45:20;1.98;;;1.50;;
13222;SDS011;6676;45.192;5.722;2022-10-01T13:48:16;3.80;;;1.42;;
13222;SDS011;6676;45.192;5.722;2022-10-01T13:51:11;1.72;;;1.22;;
13222;SDS011;6676;45.192;5.722;2022-10-01T13:54:05;4.85;;;1.25;;
13222;SDS011;6676;45.192;5.722;2022-10-01T13:57:07;1.80;;;1.30;;
13222;SDS011;6676;45.192;5.722;2022-10-01T14:00:02;1.35;;;1.00;;
13222;SDS011;6676;45.192;5.722;2022-10-01T14:03:04;2.17;;;1.00;;
13222;SDS011;6676;45.192;5.722;2022-10-01T14:08:38;1.90;;;1.22;;
13222;SDS011;6676;45.192;5.722;2022-10-01T14:14:11;1.20;;;0.80;;
13222;SDS011;6676;45.192;5.722;2022-10-01T14:17:24;1.35;;;1.25;;
13222;SDS011;6676;45.192;5.722;2022-10-01T14:23:00;1.45;;;0.80;;
13222;SDS011;6676;45.192;5.722;2022-10-01T14:25:56;0.75;;;0.70;;
13222;SDS011;6676;45.192;5.722;2022-10-01T14:28:52;0.70;;;0.70;;
13222;SDS011;6676;45.192;5.722;2022-10-01T14:31:40;1.00;;;0.90;;
13222;SDS011;6676;45.192;5.722;2022-10-01T14:34:38;1.30;;;0.90;;
13222;SDS011;6676;45.192;5.722;2022-10-01T14:37:27;1.27;;;1.00;;
13222;SDS011;6676;45.192;5.722;2022-10-01T14:42:59;3.70;;;2.47;;
13222;SDS011;6676;45.192;5.722;2022-10-01T14:45:52;1.80;;;1.52;;
13222;SDS011;6676;45.192;5.722;2022-10-01T14:48:54;2.17;;;1.67;;
13222;SDS011;6676;45.192;5.722;2022-10-01T14:51:49;1.50;;;1.40;;
13222;SDS011;6676;45.192;5.722;2022-10-01T14:54:45;3.70;;;2.20;;
13222;SDS011;6676;45.192;5.722;2022-10-01T15:00:18;4.00;;;3.00;;
13222;SDS011;6676;45.192;5.722;2022-10-01T15:03:11;5.28;;;3.65;;
13222;SDS011;6676;45.192;5.722;2022-10-01T15:06:05;8.00;;;6.10;;
13222;SDS011;6676;45.192;5.722;2022-10-01T15:09:09;4.70;;;2.30;;
13222;SDS011;6676;45.192;5.722;2022-10-01T15:12:05;3.50;;;2.20;;
13222;SDS011;6676;45.192;5.722;2022-10-01T15:14:58;4.47;;;2.47;;
13222;SDS011;6676;45.192;5.722;2022-10-01T15:17:50;3.27;;;2.15;;
13222;SDS011;6676;45.192;5.722;2022-10-01T15:20:31;2.62;;;1.90;;
13222;SDS011;6676;45.192;5.722;2022-10-01T15:23:25;2.00;;;1.80;;
13222;SDS011;6676;45.192;5.722;2022-10-01T15:26:20;3.05;;;2.75;;
13222;SDS011;6676;45.192;5.722;2022-10-01T15:32:31;3.58;;;2.65;;
13222;SDS011;6676;45.192;5.722;2022-10-01T15:35:24;3.22;;;2.92;;
13222;SDS011;6676;45.192;5.722;2022-10-01T15:38:04;4.45;;;3.67;;
13222;SDS011;6676;45.192;5.722;2022-10-01T15:41:17;4.35;;;3.00;;
13222;SDS011;6676;45.192;5.722;2022-10-01T15:44:21;4.12;;;3.58;;
13222;SDS011;6676;45.192;5.722;2022-10-01T15:46:52;4.08;;;3.30;;
13222;SDS011;6676;45.192;5.722;2022-10-01T15:49:59;5.47;;;4.17;;
13222;SDS011;6676;45.192;5.722;2022-10-01T15:52:55;4.45;;;3.80;;
13222;SDS011;6676;45.192;5.722;2022-10-01T15:55:52;3.58;;;3.27;;
13222;SDS011;6676;45.192;5.722;2022-10-01T15:58:48;4.70;;;3.90;;
13222;SDS011;6676;45.192;5.722;2022-10-01T16:04:33;3.15;;;2.70;;
13222;SDS011;6676;45.192;5.722;2022-10-01T16:07:28;4.70;;;3.47;;
13222;SDS011;6676;45.192;5.722;2022-10-01T16:10:35;5.15;;;3.67;;
13222;SDS011;6676;45.192;5.722;2022-10-01T16:13:39;6.03;;;4.35;;
13222;SDS011;6676;45.192;5.722;2022-10-01T16:19:28;3.75;;;3.20;;
13222;SDS011;6676;45.192;5.722;2022-10-01T16:22:22;3.65;;;3.20;;
13222;SDS011;6676;45.192;5.722;2022-10-01T16:28:23;4.37;;;2.87;;
13222;SDS011;6676;45.192;5.722;2022-10-01T16:31:24;3.33;;;3.00;;
13222;SDS011;6676;45.192;5.722;2022-10-01T16:34:25;3.95;;;2.85;;
13222;SDS011;6676;45.192;5.722;2022-10-01T16:40:29;3.20;;;2.40;;
13222;SDS011;6676;45.192;5.722;2022-10-01T16:43:14;3.95;;;3.05;;
13222;SDS011;6676;45.192;5.722;2022-10-01T16:46:16;3.77;;;2.95;;
13222;SDS011;6676;45.192;5.722;2022-10-01T16:49:18;4.80;;;3.87;;
13222;SDS011;6676;45.192;5.722;2022-10-01T16:52:15;5.37;;;3.95;;
13222;SDS011;6676;45.192;5.722;2022-10-01T16:58:00;6.97;;;5.00;;
13222;SDS011;6676;45.192;5.722;2022-10-01T17:00:51;7.50;;;5.42;;
13222;SDS011;6676;45.192;5.722;2022-10-01T17:03:46;6.47;;;5.20;;
13222;SDS011;6676;45.192;5.722;2022-10-01T17:06:38;7.40;;;5.40;;
13222;SDS011;6676;45.192;5.722;2022-10-01T17:09:29;6.00;;;4.87;;
13222;SDS011;6676;45.192;5.722;2022-10-01T17:12:23;5.83;;;4.90;;
13222;SDS011;6676;45.192;5.722;2022-10-01T17:15:15;6.35;;;5.33;;
13222;SDS011;6676;45.192;5.722;2022-10-01T17:18:13;6.95;;;4.30;;
13222;SDS011;6676;45.192;5.722;2022-10-01T17:21:05;8.05;;;4.12;;
13222;SDS011;6676;45.192;5.722;2022-10-01T17:23:58;4.97;;;4.10;;
13222;SDS011;6676;45.192;5.722;2022-10-01T17:26:50;5.10;;;3.85;;
13222;SDS011;6676;45.192;5.722;2022-10-01T17:29:42;5.85;;;4.37;;
13222;SDS011;6676;45.192;5.722;2022-10-01T17:32:35;5.87;;;3.92;;
13222;SDS011;6676;45.192;5.722;2022-10-01T17:35:28;4.28;;;3.75;;
13222;SDS011;6676;45.192;5.722;2022-10-01T17:38:19;4.90;;;4.40;;
13222;SDS011;6676;45.192;5.722;2022-10-01T17:43:50;8.40;;;5.90;;
13222;SDS011;6676;45.192;5.722;2022-10-01T17:46:41;7.50;;;5.92;;
13222;SDS011;6676;45.192;5.722;2022-10-01T17:49:33;7.95;;;6.45;;
13222;SDS011;6676;45.192;5.722;2022-10-01T17:52:33;9.13;;;7.22;;
13222;SDS011;6676;45.192;5.722;2022-10-01T17:58:12;8.98;;;7.22;;
13222;SDS011;6676;45.192;5.722;2022-10-01T18:01:09;7.28;;;6.58;;
13222;SDS011;6676;45.192;5.722;2022-10-01T18:04:01;10.40;;;8.70;;
13222;SDS011;6676;45.192;5.722;2022-10-01T18:09:34;10.63;;;8.85;;
13222;SDS011;6676;45.192;5.722;2022-10-01T18:12:25;11.57;;;10.00;;
13222;SDS011;6676;45.192;5.722;2022-10-01T18:18:00;9.15;;;8.23;;
13222;SDS011;6676;45.192;5.722;2022-10-01T18:23:32;8.83;;;7.92;;
13222;SDS011;6676;45.192;5.722;2022-10-01T18:26:24;10.28;;;8.15;;
13222;SDS011;6676;45.192;5.722;2022-10-01T18:29:16;9.98;;;8.93;;
13222;SDS011;6676;45.192;5.722;2022-10-01T18:32:11;12.23;;;10.70;;
13222;SDS011;6676;45.192;5.722;2022-10-01T18:35:11;13.13;;;11.43;;
13222;SDS011;6676;45.192;5.722;2022-10-01T18:38:02;14.70;;;12.05;;
13222;SDS011;6676;45.192;5.722;2022-10-01T18:43:50;14.53;;;12.30;;
13222;SDS011;6676;45.192;5.722;2022-10-01T18:46:51;14.03;;;11.48;;
13222;SDS011;6676;45.192;5.722;2022-10-01T18:49:46;11.95;;;9.73;;
13222;SDS011;6676;45.192;5.722;2022-10-01T18:52:53;16.32;;;13.13;;
13222;SDS011;6676;45.192;5.722;2022-10-01T18:58:43;12.90;;;10.60;;
13222;SDS011;6676;45.192;5.722;2022-10-01T19:02:01;12.25;;;10.40;;
13222;SDS011;6676;45.192;5.722;2022-10-01T19:09:04;13.28;;;9.88;;
13222;SDS011;6676;45.192;5.722;2022-10-01T19:12:16;8.88;;;7.95;;
13222;SDS011;6676;45.192;5.722;2022-10-01T19:15:03;9.28;;;8.38;;
13222;SDS011;6676;45.192;5.722;2022-10-01T19:18:10;12.82;;;8.53;;
13222;SDS011;6676;45.192;5.722;2022-10-01T19:21:25;11.45;;;8.85;;
13222;SDS011;6676;45.192;5.722;2022-10-01T19:24:25;12.00;;;9.30;;
13222;SDS011;6676;45.192;5.722;2022-10-01T19:27:38;9.83;;;8.23;;
13222;SDS011;6676;45.192;5.722;2022-10-01T19:37:35;10.75;;;9.60;;
13222;SDS011;6676;45.192;5.722;2022-10-01T19:40:32;13.08;;;9.90;;
13222;SDS011;6676;45.192;5.722;2022-10-01T19:43:46;11.08;;;9.35;;